Aeroporto :
LOGIN :

Iscrizione | Disclaimer

   EN    FR    IT 

 










Sommario :    VFR   VFR Marginale   IFR   IFR Intensivo   IFR Molto Intensivo
Visibilità : 
Base nubi : 
>= 8 km
>= 3000ft
5 / 8 km
1000 / 3000 ft
1500m / 5 km
500 / 1000 ft
800 / 1500m
200 / 500 ft
< 800m
< 200 ft
Simboli :   Temporali  Nebbia  Neve Forte  Precipitazioni Forti  Vento > 20 kt
SIGMETs :   Varie  Temporali  Ghiacco  Turbolenza  Onda orograficha  Ceneri Vulcaniche







- Altitudine del aeroporto : 197 ft
- Codice IATA : XOG
- Carte del aeroporto


LFMO - Orange

ULTIMO METAR :
  • 181330Z AUTO 21008KT 150V250 CAVOK 29/16 Q1017 NOSIG

METARs OBSOLETI :
  • 181300Z AUTO 19008KT 150V240 CAVOK 29/15 Q1018 NOSIG
  • 181230Z AUTO 22008KT 180V260 9999 FEW050 29/15 Q1018 NOSIG
  • 181200Z AUTO 22008KT 180V270 CAVOK 29/15 Q1018 NOSIG
  • 181130Z AUTO 19006KT 140V250 CAVOK 29/15 Q1018 NOSIG
  • 181100Z AUTO 18007KT 140V250 CAVOK 28/16 Q1018 NOSIG

TAF TAF LFMO
Valido dal 18 a 09 ore il 19 a 09 ore UTC


180800Z 1809/1909 VRB02KT CAVOK
PROB30
TEMPO 1902/1907 3000 BR
Nessun NOTAM noto per questo aeroporto.
1 SIGMET conosciuto per la FIR Marseille (LFMM) :
 
Temporali affogati
LFMM SIGMET 5 VALID 181200/181400 LFPW
LFMM MARSEILLE FIR/UIR EMBD TS OBS WI N4015 E00430 - N4145 E00430 - N4100 E00745 - N4015 E00430 TOP FL400 MOV N 10KT NC=



MetMap, La meteo Aeronautica in un colpo d'occhio ! - Copyright ORBIFLY Dicembre 2007 - Disclaimer

ORBIFLY MET'MAP TEAM :

Programmazione e sviluppo : Alexandra Zaïnal
Concezione e sviluppo : Baudouin d'Aumeries
Co-Programmazione e sviluppo : Marc-Olivier Méhu
Supporto tecnico e logistico : Manuel Goepfert
Aiuto per la traduzione : Arnaldo La Scala

Contatto : metmap@orbifly.com




FONTI E CREDITI :

   NOAA